createdAt,value
2019-05-28T00:01:09.944Z,14.73
2019-05-28T00:03:38.368Z,14.68
2019-05-28T00:06:06.819Z,14.68
2019-05-28T00:08:35.254Z,14.66
2019-05-28T00:11:03.678Z,14.66
2019-05-28T00:13:32.114Z,14.65
2019-05-28T00:16:00.559Z,14.64
2019-05-28T00:18:28.982Z,14.65
2019-05-28T00:20:57.406Z,14.62
2019-05-28T00:23:25.839Z,14.57
2019-05-28T00:25:54.326Z,14.51
2019-05-28T00:28:22.773Z,14.48
2019-05-28T00:30:51.201Z,14.41
2019-05-28T00:33:19.646Z,14.31
2019-05-28T00:35:48.075Z,14.24
2019-05-28T00:38:16.533Z,14.24
2019-05-28T00:40:45.039Z,14.28
2019-05-28T00:43:13.472Z,14.32
2019-05-28T00:45:41.912Z,14.36
2019-05-28T00:48:10.415Z,14.41
2019-05-28T00:50:39.012Z,14.38
2019-05-28T00:53:07.512Z,14.34
2019-05-28T00:55:36.959Z,14.31
2019-05-28T00:58:05.666Z,14.29
2019-05-28T01:00:51.167Z,14.26
2019-05-28T01:03:19.607Z,14.22
2019-05-28T01:05:48.038Z,14.20
2019-05-28T01:08:16.475Z,14.20
2019-05-28T01:10:45.577Z,14.18
2019-05-28T01:13:14.008Z,14.15
2019-05-28T01:15:42.470Z,14.11
2019-05-28T01:18:11.079Z,14.09
2019-05-28T01:20:39.511Z,14.09
2019-05-28T01:23:07.962Z,14.08
2019-05-28T01:25:36.397Z,14.06
2019-05-28T01:28:04.981Z,14.04
2019-05-28T01:30:33.441Z,14.03
2019-05-28T01:33:01.875Z,14.03
2019-05-28T01:35:30.308Z,14.02
2019-05-28T01:37:58.797Z,14.04
2019-05-28T01:40:27.253Z,13.99
2019-05-28T01:42:55.674Z,13.98
2019-05-28T01:45:24.103Z,14.00
2019-05-28T01:47:52.564Z,13.99
2019-05-28T01:50:21.182Z,13.98
2019-05-28T01:52:49.609Z,13.93
2019-05-28T01:55:18.175Z,13.93
2019-05-28T01:57:46.609Z,13.91
2019-05-28T02:00:15.589Z,13.92
2019-05-28T02:02:44.115Z,13.93
2019-05-28T02:05:12.978Z,13.98
2019-05-28T02:07:41.408Z,13.96
2019-05-28T02:10:11.721Z,13.99
2019-05-28T02:12:40.152Z,14.02
2019-05-28T02:15:10.942Z,13.97
2019-05-28T02:17:39.435Z,13.96
2019-05-28T02:20:09.608Z,13.94
2019-05-28T02:22:38.053Z,13.95
2019-05-28T02:25:11.357Z,13.98
2019-05-28T02:27:39.771Z,13.99
2019-05-28T02:30:14.143Z,14.01
2019-05-28T02:32:42.556Z,13.99
2019-05-28T02:35:11.526Z,13.98
2019-05-28T02:37:39.957Z,13.97
2019-05-28T02:40:08.936Z,13.95
2019-05-28T02:42:37.439Z,13.95
2019-05-28T02:45:12.762Z,13.95
2019-05-28T02:47:41.228Z,13.92
2019-05-28T02:50:11.006Z,13.94
2019-05-28T02:52:40.075Z,13.94
2019-05-28T02:55:09.344Z,13.93
2019-05-28T02:57:40.827Z,13.94
2019-05-28T03:00:14.934Z,13.93
2019-05-28T03:02:46.410Z,13.93
2019-05-28T03:05:15.080Z,13.90
2019-05-28T03:07:46.921Z,13.90
2019-05-28T03:10:17.144Z,13.91
2019-05-28T03:12:45.603Z,13.91
2019-05-28T03:15:15.363Z,13.92
2019-05-28T03:17:44.760Z,13.93
2019-05-28T03:20:13.632Z,13.95
2019-05-28T03:22:44.499Z,13.93
2019-05-28T03:25:13.066Z,13.93
2019-05-28T03:27:41.586Z,13.93
2019-05-28T03:30:11.254Z,13.93
2019-05-28T03:32:39.681Z,13.94
2019-05-28T03:35:08.356Z,13.93
2019-05-28T03:37:37.531Z,13.93
2019-05-28T03:40:08.795Z,13.92
2019-05-28T03:42:37.302Z,13.90
2019-05-28T03:45:06.881Z,13.90
2019-05-28T03:47:35.323Z,13.90
2019-05-28T03:50:07.430Z,13.89
2019-05-28T03:52:35.864Z,13.88
2019-05-28T03:55:08.315Z,13.87
2019-05-28T03:57:36.819Z,13.87
2019-05-28T04:00:08.075Z,13.88
2019-05-28T04:02:36.523Z,13.88
2019-05-28T04:05:05.688Z,13.89
2019-05-28T04:07:34.198Z,13.90
2019-05-28T04:10:02.644Z,13.92
2019-05-28T04:12:31.077Z,13.90
2019-05-28T04:14:59.500Z,13.92
2019-05-28T04:17:27.947Z,13.90
2019-05-28T04:19:56.377Z,13.89
2019-05-28T04:22:24.808Z,13.88
2019-05-28T04:24:53.235Z,13.89
2019-05-28T04:27:21.671Z,13.89
2019-05-28T04:29:50.114Z,13.90
2019-05-28T04:32:18.545Z,13.90
2019-05-28T04:34:46.972Z,13.88
2019-05-28T04:37:15.413Z,13.86
2019-05-28T04:39:43.839Z,13.87
2019-05-28T04:42:12.271Z,13.88
2019-05-28T04:44:40.699Z,13.91
2019-05-28T04:47:09.206Z,13.92
2019-05-28T04:49:37.744Z,13.90
2019-05-28T04:52:06.194Z,13.89
2019-05-28T04:54:34.609Z,13.88
2019-05-28T04:57:03.070Z,13.83
2019-05-28T04:59:31.496Z,13.82
2019-05-28T05:01:59.929Z,13.83
2019-05-28T05:04:28.356Z,13.85
2019-05-28T05:06:56.834Z,13.85
2019-05-28T05:09:25.236Z,13.88
2019-05-28T05:11:53.664Z,13.89
2019-05-28T05:14:22.097Z,13.89
2019-05-28T05:16:50.528Z,13.87
2019-05-28T05:19:18.970Z,13.88
2019-05-28T05:21:47.401Z,13.88
2019-05-28T05:24:15.832Z,13.89
2019-05-28T05:26:44.271Z,13.89
2019-05-28T05:29:12.721Z,13.91
2019-05-28T05:31:41.172Z,13.90
2019-05-28T05:34:09.600Z,13.90
2019-05-28T05:36:38.035Z,13.90
2019-05-28T05:39:08.524Z,13.90
2019-05-28T05:41:36.949Z,13.91
2019-05-28T05:44:05.455Z,13.92
2019-05-28T05:46:33.886Z,13.91
2019-05-28T05:49:02.316Z,13.91
2019-05-28T05:51:30.750Z,13.92
2019-05-28T05:53:59.184Z,13.91
2019-05-28T05:56:27.678Z,13.92
2019-05-28T05:58:56.079Z,13.93
2019-05-28T06:01:24.623Z,13.93
2019-05-28T06:03:53.048Z,13.92
2019-05-28T06:06:21.493Z,13.91
2019-05-28T06:08:49.982Z,13.92
2019-05-28T06:11:18.441Z,13.95
2019-05-28T06:13:46.914Z,14.00
2019-05-28T06:16:15.350Z,14.04
2019-05-28T06:18:43.803Z,14.08
2019-05-28T06:21:17.455Z,14.10
2019-05-28T06:23:42.436Z,14.12
2019-05-28T06:26:11.066Z,14.12
2019-05-28T06:28:39.491Z,14.12
2019-05-28T06:31:07.990Z,14.11
2019-05-28T06:33:36.427Z,14.13
2019-05-28T06:36:04.986Z,14.11
2019-05-28T06:38:33.460Z,14.12
2019-05-28T06:41:01.897Z,14.14
2019-05-28T06:43:30.400Z,14.18
2019-05-28T06:45:58.892Z,14.22
2019-05-28T06:48:27.346Z,14.24
2019-05-28T06:50:55.747Z,14.26
2019-05-28T06:53:24.186Z,14.31
2019-05-28T06:55:52.622Z,14.38
2019-05-28T06:58:37.999Z,14.38
2019-05-28T07:00:51.214Z,14.42
2019-05-28T07:03:19.657Z,14.45
2019-05-28T07:06:05.129Z,14.52
2019-05-28T07:08:18.255Z,14.55
2019-05-28T07:10:57.219Z,14.57
2019-05-28T07:13:16.861Z,14.58
2019-05-28T07:15:45.563Z,14.58
2019-05-28T07:18:14.007Z,14.55
2019-05-28T07:20:42.439Z,14.54
2019-05-28T07:23:10.876Z,14.52
2019-05-28T07:25:39.434Z,14.49
2019-05-28T07:28:11.489Z,14.38
2019-05-28T07:30:38.000Z,14.39
2019-05-28T07:33:06.587Z,14.34
2019-05-28T07:35:45.170Z,14.29
2019-05-28T07:38:05.222Z,14.32
2019-05-28T07:40:33.974Z,14.27
2019-05-28T07:43:03.509Z,14.32
2019-05-28T07:45:31.927Z,14.44
2019-05-28T07:48:00.339Z,14.52
2019-05-28T07:50:28.773Z,14.57
2019-05-28T07:52:57.230Z,14.71
2019-05-28T07:55:25.713Z,14.81
2019-05-28T07:57:54.147Z,14.81
2019-05-28T08:00:37.807Z,14.80
2019-05-28T08:03:06.567Z,14.79
2019-05-28T08:05:35.678Z,14.74
2019-05-28T08:08:07.349Z,14.71
2019-05-28T08:10:36.143Z,14.68
2019-05-28T08:13:08.407Z,14.70
2019-05-28T08:15:36.890Z,14.77
2019-05-28T08:18:05.950Z,14.85
2019-05-28T08:20:34.815Z,14.90
2019-05-28T08:23:03.311Z,14.94
2019-05-28T08:25:46.095Z,14.98
2019-05-28T08:28:18.470Z,14.96
2019-05-28T08:30:32.263Z,14.97
2019-05-28T08:33:00.696Z,14.98
2019-05-28T08:35:29.116Z,14.97
2019-05-28T08:37:57.541Z,14.97
2019-05-28T08:40:25.978Z,15.00
2019-05-28T08:42:55.393Z,14.99
2019-05-28T08:45:23.888Z,14.89
2019-05-28T08:47:52.415Z,14.88
2019-05-28T08:50:33.750Z,14.92
2019-05-28T08:52:51.089Z,14.94
2019-05-28T08:55:19.576Z,14.92
2019-05-28T08:57:48.008Z,14.93
2019-05-28T09:00:22.361Z,15.00
2019-05-28T09:02:50.754Z,15.04
2019-05-28T09:05:26.419Z,15.15
2019-05-28T09:07:49.337Z,15.26
2019-05-28T09:10:17.771Z,15.33
2019-05-28T09:12:46.201Z,15.36
2019-05-28T09:15:14.710Z,15.36
2019-05-28T09:17:43.137Z,15.44
2019-05-28T09:20:11.723Z,15.44
2019-05-28T09:22:40.153Z,15.51
2019-05-28T09:25:08.727Z,15.59
2019-05-28T09:27:37.138Z,15.68
2019-05-28T09:30:09.352Z,15.73
2019-05-28T09:32:37.961Z,15.78
2019-05-28T09:35:08.164Z,15.75
2019-05-28T09:37:36.576Z,15.71
2019-05-28T09:40:08.727Z,15.70
2019-05-28T09:42:37.154Z,15.71
2019-05-28T09:45:21.965Z,15.73
2019-05-28T09:47:37.441Z,15.79
2019-05-28T09:50:27.051Z,15.80
2019-05-28T09:52:52.971Z,15.83
2019-05-28T09:55:09.339Z,15.85
2019-05-28T09:57:47.005Z,15.96
2019-05-28T10:00:10.586Z,16.04
2019-05-28T10:02:39.131Z,16.15
2019-05-28T10:05:08.113Z,16.22
2019-05-28T10:07:36.526Z,16.32
2019-05-28T10:10:08.218Z,16.43
2019-05-28T10:12:36.631Z,16.48
2019-05-28T10:15:07.168Z,16.57
2019-05-28T10:17:35.756Z,16.61
2019-05-28T10:20:06.998Z,16.63
2019-05-28T10:22:35.437Z,16.62
2019-05-28T10:25:06.755Z,16.61
2019-05-28T10:27:35.178Z,16.55
2019-05-28T10:30:05.516Z,16.42
2019-05-28T10:32:33.924Z,16.26
2019-05-28T10:35:04.218Z,16.05
2019-05-28T10:37:32.590Z,15.68
2019-05-28T10:40:01.008Z,15.48
2019-05-28T10:42:29.442Z,15.35
2019-05-28T10:44:57.881Z,15.32
2019-05-28T10:47:26.312Z,15.31
2019-05-28T10:49:54.744Z,15.35
2019-05-28T10:52:23.212Z,15.33
2019-05-28T10:54:51.632Z,15.35
2019-05-28T10:57:20.088Z,15.48
2019-05-28T10:59:48.524Z,15.51
2019-05-28T11:02:16.961Z,15.53
2019-05-28T11:04:45.423Z,15.63
2019-05-28T11:07:13.846Z,15.68
2019-05-28T11:09:42.285Z,15.68
2019-05-28T11:12:10.713Z,15.65
2019-05-28T11:14:39.138Z,15.69
2019-05-28T11:17:07.575Z,15.61
2019-05-28T11:19:36.090Z,15.42
2019-05-28T11:22:04.963Z,15.14
2019-05-28T11:24:33.397Z,14.97
2019-05-28T11:27:01.835Z,14.91
2019-05-28T11:29:30.273Z,14.99
2019-05-28T11:31:58.723Z,15.00
2019-05-28T11:34:27.193Z,15.11
2019-05-28T11:37:08.781Z,15.23
2019-05-28T11:39:25.751Z,15.39
2019-05-28T11:41:54.178Z,15.49
2019-05-28T11:44:22.626Z,15.53
2019-05-28T11:46:51.187Z,15.53
2019-05-28T11:49:19.725Z,15.53
2019-05-28T11:51:48.155Z,15.62
2019-05-28T11:54:16.586Z,15.69
2019-05-28T11:56:45.024Z,15.80
2019-05-28T11:59:13.457Z,15.90
2019-05-28T12:01:46.950Z,15.98
2019-05-28T12:04:18.195Z,15.99
2019-05-28T12:06:49.327Z,16.11
2019-05-28T12:09:20.990Z,16.24
2019-05-28T12:11:52.542Z,16.25
2019-05-28T12:14:25.870Z,16.32
2019-05-28T12:17:00.772Z,16.44
2019-05-28T12:19:35.194Z,16.50
2019-05-28T12:22:05.117Z,16.53
2019-05-28T12:24:33.571Z,16.53
2019-05-28T12:27:04.453Z,16.55
2019-05-28T12:29:51.054Z,16.57
2019-05-28T12:32:09.684Z,16.62
2019-05-28T12:34:42.144Z,16.64
2019-05-28T12:37:15.373Z,16.70
2019-05-28T12:39:47.863Z,16.71
2019-05-28T12:42:19.305Z,16.72
2019-05-28T12:45:08.258Z,16.77
2019-05-28T12:47:22.421Z,16.81
2019-05-28T12:49:50.947Z,16.87
2019-05-28T12:52:19.372Z,16.90
2019-05-28T12:54:47.806Z,16.94
2019-05-28T12:57:16.239Z,17.01
2019-05-28T12:59:44.664Z,17.08
2019-05-28T13:02:13.100Z,17.15
2019-05-28T13:04:41.786Z,17.25
2019-05-28T13:07:10.311Z,17.29
2019-05-28T13:09:38.732Z,17.30
2019-05-28T13:12:07.187Z,17.32
2019-05-28T13:14:35.666Z,17.23
2019-05-28T13:17:04.103Z,17.01
2019-05-28T13:19:32.548Z,16.74
2019-05-28T13:22:01.035Z,16.61
2019-05-28T13:24:29.445Z,16.48
2019-05-28T13:26:57.871Z,16.40
2019-05-28T13:29:27.247Z,16.43
2019-05-28T13:31:55.675Z,16.51
2019-05-28T13:34:24.139Z,16.60
2019-05-28T13:36:52.557Z,16.67
2019-05-28T13:39:21.021Z,16.68
2019-05-28T13:41:49.417Z,16.67
2019-05-28T13:44:17.847Z,16.64
2019-05-28T13:46:46.278Z,16.69
2019-05-28T13:49:14.706Z,16.72
2019-05-28T13:51:43.203Z,16.88
2019-05-28T13:54:11.670Z,16.88
2019-05-28T13:56:40.105Z,16.95
2019-05-28T13:59:10.468Z,17.05
2019-05-28T14:01:38.915Z,17.13
2019-05-28T14:04:07.346Z,17.24
2019-05-28T14:06:35.837Z,17.27
2019-05-28T14:09:06.397Z,17.28
2019-05-28T14:11:34.834Z,17.30
2019-05-28T14:14:03.405Z,17.23
2019-05-28T14:16:31.839Z,17.12
2019-05-28T14:19:00.262Z,17.04
2019-05-28T14:21:28.758Z,17.00
2019-05-28T14:23:57.259Z,17.05
2019-05-28T14:26:25.683Z,17.05
2019-05-28T14:28:54.145Z,17.06
2019-05-28T14:31:22.576Z,17.06
2019-05-28T14:33:50.998Z,17.07
2019-05-28T14:36:19.421Z,17.03
2019-05-28T14:39:01.359Z,17.07
2019-05-28T14:41:18.004Z,17.02
2019-05-28T14:43:46.434Z,16.66
2019-05-28T14:46:14.860Z,16.23
2019-05-28T14:48:43.291Z,15.64
2019-05-28T14:51:11.726Z,14.68
2019-05-28T14:53:40.256Z,14.26
2019-05-28T14:56:08.741Z,14.01
2019-05-28T14:58:37.181Z,13.83
2019-05-28T15:01:05.612Z,13.75
2019-05-28T15:03:34.049Z,13.76
2019-05-28T15:06:02.487Z,13.76
2019-05-28T15:08:30.932Z,13.83
2019-05-28T15:10:59.374Z,13.92
2019-05-28T15:13:27.860Z,14.02
2019-05-28T15:15:56.343Z,14.00
2019-05-28T15:18:24.762Z,13.95
2019-05-28T15:20:53.203Z,13.95
2019-05-28T15:23:21.633Z,13.95
2019-05-28T15:25:50.058Z,13.97
2019-05-28T15:28:18.479Z,14.02
2019-05-28T15:30:46.906Z,14.08
2019-05-28T15:33:15.406Z,14.09
2019-05-28T15:35:43.979Z,14.09
2019-05-28T15:38:12.419Z,14.13
2019-05-28T15:40:40.846Z,14.14
2019-05-28T15:43:09.288Z,14.10
2019-05-28T15:45:37.749Z,14.10
2019-05-28T15:48:06.175Z,14.14
2019-05-28T15:50:34.705Z,14.14
2019-05-28T15:53:03.133Z,14.09
2019-05-28T15:55:31.558Z,14.02
2019-05-28T15:58:00.073Z,13.92
2019-05-28T16:00:28.509Z,13.81
2019-05-28T16:02:56.952Z,13.70
2019-05-28T16:05:25.412Z,13.65
2019-05-28T16:07:53.896Z,13.70
2019-05-28T16:10:22.386Z,13.68
2019-05-28T16:12:50.812Z,13.69
2019-05-28T16:15:19.579Z,13.68
2019-05-28T16:17:48.012Z,13.71
2019-05-28T16:20:16.941Z,13.77
2019-05-28T16:22:45.418Z,13.80
2019-05-28T16:25:14.346Z,13.84
2019-05-28T16:27:42.762Z,13.83
2019-05-28T16:30:11.878Z,13.82
2019-05-28T16:32:40.361Z,13.85
2019-05-28T16:35:09.421Z,13.85
2019-05-28T16:37:37.847Z,13.82
2019-05-28T16:40:14.802Z,13.84
2019-05-28T16:42:37.433Z,13.89
2019-05-28T16:45:07.298Z,13.93
2019-05-28T16:47:35.722Z,13.95
2019-05-28T16:50:05.520Z,13.95
2019-05-28T16:52:33.932Z,14.00
2019-05-28T16:55:02.349Z,14.01
2019-05-28T16:57:30.807Z,14.04
2019-05-28T16:59:59.224Z,14.05
2019-05-28T17:02:27.668Z,14.06
2019-05-28T17:04:56.097Z,14.06
2019-05-28T17:07:24.579Z,14.08
2019-05-28T17:09:55.535Z,14.09
2019-05-28T17:12:23.161Z,14.10
2019-05-28T17:14:51.584Z,14.09
2019-05-28T17:17:20.025Z,14.09
2019-05-28T17:19:49.443Z,14.06
2019-05-28T17:22:17.871Z,14.01
2019-05-28T17:24:46.850Z,13.95
2019-05-28T17:27:16.341Z,13.91
2019-05-28T17:29:44.768Z,13.90
2019-05-28T17:32:13.262Z,13.88
2019-05-28T17:34:41.757Z,13.85
2019-05-28T17:37:10.189Z,13.83
2019-05-28T17:39:38.623Z,13.84
2019-05-28T17:42:07.069Z,13.86
2019-05-28T17:44:35.479Z,13.85
2019-05-28T17:47:03.981Z,13.83
2019-05-28T17:49:32.402Z,13.76
2019-05-28T17:52:00.839Z,13.75
2019-05-28T17:54:29.257Z,13.71
2019-05-28T17:56:57.704Z,13.69
2019-05-28T17:59:26.126Z,13.69
2019-05-28T18:01:54.623Z,13.68
2019-05-28T18:04:24.035Z,13.68
2019-05-28T18:06:52.552Z,13.70
2019-05-28T18:09:20.999Z,13.71
2019-05-28T18:11:49.423Z,13.68
2019-05-28T18:14:17.873Z,13.69
2019-05-28T18:16:46.314Z,13.67
2019-05-28T18:19:14.911Z,13.65
2019-05-28T18:21:43.370Z,13.63
2019-05-28T18:24:11.765Z,13.64
2019-05-28T18:26:40.187Z,13.61
2019-05-28T18:29:08.664Z,13.64
2019-05-28T18:31:37.086Z,13.67
2019-05-28T18:34:05.586Z,13.68
2019-05-28T18:36:34.018Z,13.67
2019-05-28T18:39:02.532Z,13.66
2019-05-28T18:41:30.949Z,13.66
2019-05-28T18:44:01.379Z,13.67
2019-05-28T18:46:29.513Z,13.66
2019-05-28T18:48:57.936Z,13.66
2019-05-28T18:51:26.427Z,13.63
2019-05-28T18:53:54.895Z,13.63
2019-05-28T18:56:23.354Z,13.63
2019-05-28T18:58:52.621Z,13.64
2019-05-28T19:01:21.003Z,13.64
2019-05-28T19:03:49.421Z,13.65
2019-05-28T19:06:17.869Z,13.61
2019-05-28T19:08:46.320Z,13.57
2019-05-28T19:11:14.805Z,13.57
2019-05-28T19:13:43.241Z,13.55
2019-05-28T19:16:11.690Z,13.55
2019-05-28T19:18:40.160Z,13.56
2019-05-28T19:21:08.537Z,13.55
2019-05-28T19:23:36.976Z,13.52
2019-05-28T19:26:05.476Z,13.49
2019-05-28T19:28:33.960Z,13.47
2019-05-28T19:31:02.554Z,13.45
2019-05-28T19:33:31.059Z,13.43
2019-05-28T19:36:01.196Z,13.39
2019-05-28T19:38:44.492Z,13.36
2019-05-28T19:40:59.938Z,13.33
2019-05-28T19:43:28.410Z,13.28
2019-05-28T19:45:56.780Z,13.27
2019-05-28T19:48:25.552Z,13.21
2019-05-28T19:50:53.978Z,13.19
2019-05-28T19:53:22.352Z,13.15
2019-05-28T19:55:50.780Z,13.13
2019-05-28T19:58:19.127Z,13.12
2019-05-28T20:00:47.521Z,13.10
2019-05-28T20:03:15.982Z,13.07
2019-05-28T20:05:44.459Z,13.05
2019-05-28T20:08:12.963Z,13.01
2019-05-28T20:10:41.692Z,12.99
2019-05-28T20:13:10.087Z,12.96
2019-05-28T20:15:38.507Z,12.91
2019-05-28T20:18:07.771Z,12.89
2019-05-28T20:20:36.150Z,12.89
2019-05-28T20:23:04.695Z,12.86
2019-05-28T20:25:33.095Z,12.82
2019-05-28T20:28:01.486Z,12.82
2019-05-28T20:30:29.965Z,12.84
2019-05-28T20:32:59.140Z,12.82
2019-05-28T20:35:30.960Z,12.81
2019-05-28T20:37:57.820Z,12.82
2019-05-28T20:40:26.270Z,12.81
2019-05-28T20:42:54.735Z,12.77
2019-05-28T20:45:23.121Z,12.76
2019-05-28T20:47:51.507Z,12.76
2019-05-28T20:50:20.184Z,12.75
2019-05-28T20:52:48.567Z,12.70
2019-05-28T20:55:17.701Z,12.68
2019-05-28T20:57:47.061Z,12.68
2019-05-28T21:00:17.088Z,12.67
2019-05-28T21:02:45.472Z,12.66
2019-05-28T21:05:14.193Z,12.65
2019-05-28T21:07:42.575Z,12.62
2019-05-28T21:10:12.297Z,12.62
2019-05-28T21:12:44.531Z,12.61
2019-05-28T21:15:15.917Z,12.58
2019-05-28T21:17:42.832Z,12.59
2019-05-28T21:20:12.956Z,12.56
2019-05-28T21:22:41.355Z,12.55
2019-05-28T21:25:09.983Z,12.55
2019-05-28T21:27:38.432Z,12.53
2019-05-28T21:30:07.669Z,12.50
2019-05-28T21:32:36.132Z,12.49
2019-05-28T21:35:06.114Z,12.46
2019-05-28T21:37:34.537Z,12.43
2019-05-28T21:40:02.961Z,12.40
2019-05-28T21:42:31.352Z,12.37
2019-05-28T21:45:00.263Z,12.37
2019-05-28T21:47:28.605Z,12.33
2019-05-28T21:49:58.867Z,12.32
2019-05-28T21:52:27.163Z,12.28
2019-05-28T21:54:55.736Z,12.24
2019-05-28T21:57:24.133Z,12.23
2019-05-28T21:59:53.503Z,12.26
2019-05-28T22:02:22.107Z,12.28
2019-05-28T22:04:50.492Z,12.31
2019-05-28T22:07:18.912Z,12.29
2019-05-28T22:09:47.307Z,12.27
2019-05-28T22:12:15.695Z,12.26
2019-05-28T22:14:44.076Z,12.19
2019-05-28T22:17:13.327Z,12.19
2019-05-28T22:19:41.756Z,12.20
2019-05-28T22:22:10.156Z,12.20
2019-05-28T22:24:38.603Z,12.22
2019-05-28T22:27:07.032Z,12.23
2019-05-28T22:29:35.464Z,12.23
2019-05-28T22:32:04.911Z,12.24
2019-05-28T22:34:33.494Z,12.26
2019-05-28T22:37:02.434Z,12.27
2019-05-28T22:39:30.929Z,12.27
2019-05-28T22:41:59.674Z,12.27
2019-05-28T22:44:28.209Z,12.25
2019-05-28T22:46:57.066Z,12.23
2019-05-28T22:49:25.469Z,12.21
2019-05-28T22:51:53.863Z,12.20
2019-05-28T22:54:22.260Z,12.19
2019-05-28T22:56:50.725Z,12.20
2019-05-28T22:59:19.120Z,12.20
2019-05-28T23:01:47.516Z,12.21
2019-05-28T23:04:15.917Z,12.21
2019-05-28T23:06:44.317Z,12.18
2019-05-28T23:09:12.729Z,12.17
2019-05-28T23:11:41.187Z,12.14
2019-05-28T23:14:10.329Z,12.12
2019-05-28T23:16:38.848Z,12.08
2019-05-28T23:19:08.621Z,12.05
2019-05-28T23:21:37.201Z,12.02
2019-05-28T23:24:05.591Z,12.01
2019-05-28T23:26:34.084Z,11.97
2019-05-28T23:29:03.626Z,11.95
2019-05-28T23:31:32.057Z,11.95
2019-05-28T23:34:00.439Z,11.93
2019-05-28T23:36:28.831Z,11.93
2019-05-28T23:38:57.215Z,11.92
2019-05-28T23:41:25.661Z,11.91
2019-05-28T23:44:02.051Z,11.90
2019-05-28T23:46:24.232Z,11.90
2019-05-28T23:48:52.629Z,11.89
2019-05-28T23:51:21.083Z,11.88
2019-05-28T23:53:49.544Z,11.82
2019-05-28T23:56:18.054Z,11.77
2019-05-28T23:58:46.423Z,11.78
